Time;durP1;ratioP1;P1;durP2;ratioP2;P2;SDS_P1;SDS_P2;PMS_P1;PMS_P2;Temp;Humidity;BMP_temperature;BMP_pressure;BME280_temperature;BME280_humidity;BME280_pressure;Samples;Min_cycle;Max_cycle;Signal;HPM_P1;HPM_P2
2023/10/25 00:01:03;;;;;;;;;;;;;;;;;;5039120;28;20007;-66
2023/10/25 00:03:29;;;;;;;;;;;;;;;;;;5039480;28;19983;-66
2023/10/25 00:05:55;;;;;;;;;;;;;;;;;;5039205;28;20401;-66
2023/10/25 00:08:21;;;;;;;;;;;;;;;;;;5045798;28;19919;-66
2023/10/25 00:10:46;;;;;;;;;;;;;;;;;;5039564;28;19997;-66
2023/10/25 00:13:12;;;;;;;;;;;;;;;;;;5047688;28;19964;-66
2023/10/25 00:15:38;;;;;;;;;;;;;;;;;;5048412;28;20004;-66
2023/10/25 00:18:04;;;;;;;;;;;;;;;;;;5050000;28;19913;-66
2023/10/25 00:20:30;;;;;;;;;;;;;;;;;;5040810;28;19940;-66
2023/10/25 00:22:56;;;;;;;;;;;;;;;;;;5046257;28;19923;-66
2023/10/25 00:25:22;;;;;;;;;;;;;;;;;;5041614;28;20373;-65
2023/10/25 00:27:48;;;;;;;;;;;;;;;;;;5050288;28;19917;-66
2023/10/25 00:30:14;;;;;;;;;;;;;;;;;;5046298;28;20002;-66
2023/10/25 00:32:40;;;;;;;;;;;;;;;;;;5049400;28;20296;-69
2023/10/25 00:35:06;;;;;;;;;;;;;;;;;;5041864;28;19913;-69
2023/10/25 00:37:32;;;;;;;;;;;;;;;;;;5040305;28;19978;-68
2023/10/25 00:39:57;;;;;;;;;;;;;;;;;;5041169;28;19912;-69
2023/10/25 00:42:23;;;;;;;;;;;;;;;;;;5049175;28;19917;-68
2023/10/25 00:44:49;;;;;;;;;;;;;;;;;;5046717;28;19956;-69
2023/10/25 00:47:15;;;;;;;;;;;;;;;;;;5050314;28;20011;-69
2023/10/25 00:49:41;;;;;;;;;;;;;;;;;;5050004;28;19962;-68
2023/10/25 00:52:07;;;;;;;;;;;;;;;;;;5051911;28;20397;-69
2023/10/25 00:54:33;;;;;;;;;;;;;;;;;;5046307;28;19913;-67
2023/10/25 00:56:59;;;;;;;;;;;;;;;;;;5044794;28;19965;-67
2023/10/25 00:59:25;;;;;;;;;;;;;;;;;;5044497;28;21793;-69
2023/10/25 01:01:51;;;;;;;;;;;;;;;;;;5051521;28;19952;-69
2023/10/25 01:04:17;;;;;;;;;;;;;;;;;;5046378;28;20361;-68
2023/10/25 01:06:43;;;;;;;;;;;;;;;;;;5043296;28;20388;-69
2023/10/25 01:09:09;;;;;;;;;;;;;;;;;;5049519;28;20011;-69
2023/10/25 01:11:34;;;;;;;;;;;;;;;;;;5037695;28;20320;-67
2023/10/25 01:14:01;;;;;;;;;;;;;;;;;;5042687;28;19955;-69
2023/10/25 01:16:27;;;;;;;;;;;;;;;;;;5053694;28;19916;-67
2023/10/25 01:18:53;;;;;;;;;;;;;;;;;;5045986;28;19913;-68
2023/10/25 01:21:18;;;;;;;;;;;;;;;;;;5048644;28;20297;-68
2023/10/25 01:23:44;;;;;;;;;;;;;;;;;;5039670;28;19998;-69
2023/10/25 01:26:11;;;;;;;;;;;;;;;;;;5048622;28;19944;-69
2023/10/25 01:28:36;;;;;;;;;;;;;;;;;;5044882;28;19929;-68
2023/10/25 01:31:02;;;;;;;;;;;;;;;;;;5034571;28;19929;-69
2023/10/25 01:33:28;;;;;;;;;;;;;;;;;;5034605;28;20391;-68
2023/10/25 01:35:54;;;;;;;;;;;;;;;;;;5048661;28;19960;-69
2023/10/25 01:38:20;;;;;;;;;;;;;;;;;;5042495;28;20331;-69
2023/10/25 01:40:46;;;;;;;;;;;;;;;;;;5047364;28;19943;-69
2023/10/25 01:43:12;;;;;;;;;;;;;;;;;;5051902;28;19963;-66
2023/10/25 01:45:38;;;;;;;;;;;;;;;;;;5039249;28;19968;-66
2023/10/25 01:48:04;;;;;;;;;;;;;;;;;;5051627;28;19909;-66
2023/10/25 01:50:30;;;;;;;;;;;;;;;;;;5041099;28;20660;-66
2023/10/25 01:52:56;;;;;;;;;;;;;;;;;;5047296;28;19951;-66
2023/10/25 01:55:22;;;;;;;;;;;;;;;;;;5048553;28;19913;-66
2023/10/25 01:57:47;;;;;;;;;;;;;;;;;;5050037;28;19955;-66
2023/10/25 02:00:13;;;;;;;;;;;;;;;;;;5041047;28;19919;-66
2023/10/25 02:02:39;;;;;;;;;;;;;;;;;;5042035;28;19920;-69
2023/10/25 02:05:05;;;;;;;;;;;;;;;;;;5046545;28;19913;-69
2023/10/25 02:07:31;;;;;;;;;;;;;;;;;;5049005;28;20011;-69
2023/10/25 02:09:57;;;;;;;;;;;;;;;;;;5032981;28;20372;-69
2023/10/25 02:12:23;;;;;;;;;;;;;;;;;;5051006;28;19952;-69
2023/10/25 02:14:49;;;;;;;;;;;;;;;;;;5051447;28;19913;-69
2023/10/25 02:17:15;;;;;;;;;;;;;;;;;;5039112;28;20375;-69
2023/10/25 02:19:41;;;;;;;;;;;;;;;;;;5042716;28;19920;-69
2023/10/25 02:22:07;;;;;;;;;;;;;;;;;;5033862;28;19970;-69
2023/10/25 02:24:32;;;;;;;;;;;;;;;;;;5046321;28;20409;-69
2023/10/25 02:26:58;;;;;;;;;;;;;;;;;;5042013;28;19919;-69
2023/10/25 02:29:24;;;;;;;;;;;;;;;;;;5037386;28;20380;-69
2023/10/25 02:31:51;;;;;;;;;;;;;;;;;;5050075;28;19921;-68
2023/10/25 02:34:17;;;;;;;;;;;;;;;;;;5041719;28;20630;-69
2023/10/25 02:36:42;;;;;;;;;;;;;;;;;;5045040;28;20017;-69
2023/10/25 02:39:08;;;;;;;;;;;;;;;;;;5045097;28;19913;-69
2023/10/25 02:41:34;;;;;;;;;;;;;;;;;;5035852;28;19960;-69
2023/10/25 02:44:01;;;;;;;;;;;;;;;;;;5034177;28;19913;-68
2023/10/25 02:46:26;;;;;;;;;;;;;;;;;;5050899;28;20332;-69
2023/10/25 02:48:53;;;;;;;;;;;;;;;;;;5051489;28;19913;-69
2023/10/25 02:51:19;;;;;;;;;;;;;;;;;;5039919;28;19924;-69
2023/10/25 02:53:45;;;;;;;;;;;;;;;;;;5037371;28;19952;-68
2023/10/25 02:56:11;;;;;;;;;;;;;;;;;;5052295;28;19912;-69
2023/10/25 02:58:37;;;;;;;;;;;;;;;;;;5053064;28;19913;-69
2023/10/25 03:01:03;;;;;;;;;;;;;;;;;;5049903;28;19952;-69
2023/10/25 03:03:28;;;;;;;;;;;;;;;;;;5046208;28;20019;-69
2023/10/25 03:05:54;;;;;;;;;;;;;;;;;;5043337;28;20495;-69
2023/10/25 03:08:20;;;;;;;;;;;;;;;;;;5046540;28;19920;-69
2023/10/25 03:10:46;;;;;;;;;;;;;;;;;;5044083;28;20352;-69
2023/10/25 03:13:12;;;;;;;;;;;;;;;;;;5035574;28;19996;-66
2023/10/25 03:15:38;;;;;;;;;;;;;;;;;;5047063;28;19977;-66
2023/10/25 03:18:04;;;;;;;;;;;;;;;;;;5049576;28;19955;-66
2023/10/25 03:20:30;;;;;;;;;;;;;;;;;;5039978;28;19998;-66
2023/10/25 03:22:56;;;;;;;;;;;;;;;;;;5042391;28;19917;-67
2023/10/25 03:25:22;;;;;;;;;;;;;;;;;;5049516;28;19971;-66
2023/10/25 03:27:48;;;;;;;;;;;;;;;;;;5044306;28;19999;-66
2023/10/25 03:30:13;;;;;;;;;;;;;;;;;;5050210;28;19924;-66
2023/10/25 03:32:39;;;;;;;;;;;;;;;;;;5034396;28;20323;-66
2023/10/25 03:35:05;;;;;;;;;;;;;;;;;;5042099;28;19948;-66
2023/10/25 03:37:32;;;;;;;;;;;;;;;;;;5051348;28;19954;-66
2023/10/25 03:39:57;;;;;;;;;;;;;;;;;;5053834;28;20451;-66
2023/10/25 03:42:23;;;;;;;;;;;;;;;;;;5045706;28;19959;-66
2023/10/25 03:44:49;;;;;;;;;;;;;;;;;;5040966;28;19920;-66
2023/10/25 03:47:15;;;;;;;;;;;;;;;;;;5050044;28;19917;-66
2023/10/25 03:49:41;;;;;;;;;;;;;;;;;;5032189;28;20333;-66
2023/10/25 03:52:07;;;;;;;;;;;;;;;;;;5040746;28;19921;-66
2023/10/25 03:54:33;;;;;;;;;;;;;;;;;;5044172;28;19924;-66
2023/10/25 03:56:59;;;;;;;;;;;;;;;;;;5039899;28;19920;-66
2023/10/25 03:59:25;;;;;;;;;;;;;;;;;;5033796;28;19913;-66
2023/10/25 04:01:50;;;;;;;;;;;;;;;;;;5042597;28;20347;-69
2023/10/25 04:04:16;;;;;;;;;;;;;;;;;;5040110;28;19924;-68
2023/10/25 04:06:42;;;;;;;;;;;;;;;;;;5045904;28;19939;-69
2023/10/25 04:09:08;;;;;;;;;;;;;;;;;;5042154;28;19948;-69
2023/10/25 04:11:34;;;;;;;;;;;;;;;;;;5049161;28;19913;-69
2023/10/25 04:14:00;;;;;;;;;;;;;;;;;;5045154;28;19959;-69
2023/10/25 04:16:27;;;;;;;;;;;;;;;;;;5045461;28;19960;-67
2023/10/25 04:18:53;;;;;;;;;;;;;;;;;;5043261;28;19948;-69
2023/10/25 04:21:19;;;;;;;;;;;;;;;;;;5048325;28;19963;-69
2023/10/25 04:23:45;;;;;;;;;;;;;;;;;;5047505;28;19929;-69
2023/10/25 04:26:11;;;;;;;;;;;;;;;;;;5044175;28;20297;-69
2023/10/25 04:28:36;;;;;;;;;;;;;;;;;;5049867;28;19952;-69
2023/10/25 04:31:02;;;;;;;;;;;;;;;;;;5046980;28;20110;-69
2023/10/25 04:33:28;;;;;;;;;;;;;;;;;;5051892;28;19919;-69
2023/10/25 04:35:55;;;;;;;;;;;;;;;;;;5048359;28;20002;-67
2023/10/25 04:38:23;;;;;;;;;;;;;;;;;;5044230;28;19924;-69
2023/10/25 04:40:49;;;;;;;;;;;;;;;;;;5047801;28;19909;-68
2023/10/25 04:43:15;;;;;;;;;;;;;;;;;;5045574;28;20288;-69
2023/10/25 04:45:41;;;;;;;;;;;;;;;;;;5043806;28;20006;-69
2023/10/25 04:48:07;;;;;;;;;;;;;;;;;;5053871;28;20047;-69
2023/10/25 04:50:34;;;;;;;;;;;;;;;;;;5042941;28;20414;-68
2023/10/25 04:53:01;;;;;;;;;;;;;;;;;;5048566;28;19960;-68
2023/10/25 04:55:29;;;;;;;;;;;;;;;;;;5049387;28;19917;-69
2023/10/25 04:57:55;;;;;;;;;;;;;;;;;;5052428;28;20254;-69
2023/10/25 05:00:21;;;;;;;;;;;;;;;;;;5047607;28;19920;-67
2023/10/25 05:02:47;;;;;;;;;;;;;;;;;;5037635;28;20016;-69
2023/10/25 05:05:12;;;;;;;;;;;;;;;;;;5039393;28;20385;-69
2023/10/25 05:07:38;;;;;;;;;;;;;;;;;;5053382;28;20000;-69
2023/10/25 05:10:04;;;;;;;;;;;;;;;;;;5052876;28;19917;-69
2023/10/25 05:12:30;;;;;;;;;;;;;;;;;;5043248;28;20369;-66
2023/10/25 05:14:56;;;;;;;;;;;;;;;;;;5044639;28;19913;-66
2023/10/25 05:17:22;;;;;;;;;;;;;;;;;;5052545;28;20344;-66
2023/10/25 05:19:48;;;;;;;;;;;;;;;;;;5054127;28;19996;-66
2023/10/25 05:22:14;;;;;;;;;;;;;;;;;;5046021;28;19909;-66
2023/10/25 05:24:40;;;;;;;;;;;;;;;;;;5053645;28;19921;-66
2023/10/25 05:27:06;;;;;;;;;;;;;;;;;;5041562;28;19928;-65
2023/10/25 05:29:32;;;;;;;;;;;;;;;;;;5052514;28;19916;-66
2023/10/25 05:31:58;;;;;;;;;;;;;;;;;;5047147;28;19987;-69
2023/10/25 05:34:23;;;;;;;;;;;;;;;;;;5054282;28;19948;-69
2023/10/25 05:36:49;;;;;;;;;;;;;;;;;;5053624;28;20438;-69
2023/10/25 05:39:15;;;;;;;;;;;;;;;;;;5051671;28;19913;-67
2023/10/25 05:41:41;;;;;;;;;;;;;;;;;;5041902;28;20353;-67
2023/10/25 05:44:07;;;;;;;;;;;;;;;;;;5046979;28;19951;-69
2023/10/25 05:46:33;;;;;;;;;;;;;;;;;;5053641;28;19959;-69
2023/10/25 05:48:59;;;;;;;;;;;;;;;;;;5045025;28;20299;-69
2023/10/25 05:51:25;;;;;;;;;;;;;;;;;;5043765;28;19969;-69
2023/10/25 05:53:50;;;;;;;;;;;;;;;;;;5052678;28;19991;-69
2023/10/25 05:56:17;;;;;;;;;;;;;;;;;;5044512;28;19917;-69
2023/10/25 05:58:43;;;;;;;;;;;;;;;;;;5050762;28;20391;-69
2023/10/25 06:01:09;;;;;;;;;;;;;;;;;;5046052;28;19952;-69
2023/10/25 06:03:35;;;;;;;;;;;;;;;;;;5051897;28;19974;-69
2023/10/25 06:06:01;;;;;;;;;;;;;;;;;;5044481;28;20032;-70
2023/10/25 06:08:27;;;;;;;;;;;;;;;;;;5043060;28;19944;-70
2023/10/25 06:10:53;;;;;;;;;;;;;;;;;;5039440;28;20011;-69
2023/10/25 06:13:18;;;;;;;;;;;;;;;;;;5047786;28;20429;-69
2023/10/25 06:15:45;;;;;;;;;;;;;;;;;;5043762;28;19952;-69
2023/10/25 06:18:11;;;;;;;;;;;;;;;;;;5038318;28;20012;-69
2023/10/25 06:20:37;;;;;;;;;;;;;;;;;;5048442;28;19999;-69
2023/10/25 06:23:03;;;;;;;;;;;;;;;;;;5049502;28;19955;-69
2023/10/25 06:25:29;;;;;;;;;;;;;;;;;;5051957;28;19921;-69
2023/10/25 06:27:57;;;;;;;;;;;;;;;;;;5043912;28;19924;-69
2023/10/25 06:30:23;;;;;;;;;;;;;;;;;;5043700;28;20384;-69
2023/10/25 06:32:49;;;;;;;;;;;;;;;;;;5049918;28;19916;-68
2023/10/25 06:35:15;;;;;;;;;;;;;;;;;;5045557;28;19912;-69
2023/10/25 06:37:40;;;;;;;;;;;;;;;;;;5044072;28;20404;-69
2023/10/25 06:40:07;;;;;;;;;;;;;;;;;;5051920;28;19971;-69
2023/10/25 06:42:32;;;;;;;;;;;;;;;;;;5050204;28;19924;-66
2023/10/25 06:44:58;;;;;;;;;;;;;;;;;;5034116;28;19917;-66
2023/10/25 06:47:26;;;;;;;;;;;;;;;;;;5038822;28;19960;-67
2023/10/25 06:49:52;;;;;;;;;;;;;;;;;;5034929;28;19921;-66
2023/10/25 06:52:18;;;;;;;;;;;;;;;;;;5051291;28;19959;-66
2023/10/25 06:54:44;;;;;;;;;;;;;;;;;;5046487;28;19943;-66
2023/10/25 06:57:10;;;;;;;;;;;;;;;;;;5050274;28;19913;-66
2023/10/25 06:59:37;;;;;;;;;;;;;;;;;;5046931;28;19935;-67
2023/10/25 07:02:03;;;;;;;;;;;;;;;;;;5049694;28;19916;-66
2023/10/25 07:04:29;;;;;;;;;;;;;;;;;;5049148;28;20392;-66
2023/10/25 07:06:55;;;;;;;;;;;;;;;;;;5038841;28;19913;-66
2023/10/25 07:09:21;;;;;;;;;;;;;;;;;;5044825;28;19983;-66
2023/10/25 07:11:47;;;;;;;;;;;;;;;;;;5049997;28;19962;-66
2023/10/25 07:14:13;;;;;;;;;;;;;;;;;;5048216;28;19924;-66
2023/10/25 07:16:39;;;;;;;;;;;;;;;;;;5042859;28;19956;-66
2023/10/25 07:19:05;;;;;;;;;;;;;;;;;;5049012;28;19967;-66
2023/10/25 07:21:31;;;;;;;;;;;;;;;;;;5044699;28;20324;-66
2023/10/25 07:23:57;;;;;;;;;;;;;;;;;;5045627;28;19971;-66
2023/10/25 07:26:23;;;;;;;;;;;;;;;;;;5047589;28;19913;-66
2023/10/25 07:28:51;;;;;;;;;;;;;;;;;;5041952;28;21384;-66
2023/10/25 07:31:16;;;;;;;;;;;;;;;;;;5048933;28;20377;-67
2023/10/25 07:33:43;;;;;;;;;;;;;;;;;;5041538;28;20004;-66
2023/10/25 07:36:09;;;;;;;;;;;;;;;;;;5048040;28;19913;-66
2023/10/25 07:38:36;;;;;;;;;;;;;;;;;;5048892;28;19919;-66
2023/10/25 07:41:02;;;;;;;;;;;;;;;;;;5041298;28;20266;-66
2023/10/25 07:43:28;;;;;;;;;;;;;;;;;;5042047;28;19967;-66
2023/10/25 07:45:54;;;;;;;;;;;;;;;;;;5043579;28;19913;-66
2023/10/25 07:48:20;;;;;;;;;;;;;;;;;;5040032;28;19963;-66
2023/10/25 07:50:46;;;;;;;;;;;;;;;;;;5044678;28;19916;-66
2023/10/25 07:53:12;;;;;;;;;;;;;;;;;;5050939;28;19942;-68
2023/10/25 07:55:38;;;;;;;;;;;;;;;;;;5050782;28;19944;-69
2023/10/25 07:58:04;;;;;;;;;;;;;;;;;;5042733;28;20296;-68
2023/10/25 08:00:30;;;;;;;;;;;;;;;;;;5045661;28;19917;-69
2023/10/25 08:02:55;;;;;;;;;;;;;;;;;;5045861;28;20016;-69
2023/10/25 08:05:21;;;;;;;;;;;;;;;;;;5053023;28;19919;-69
2023/10/25 08:07:47;;;;;;;;;;;;;;;;;;5048651;28;19917;-68
2023/10/25 08:10:13;;;;;;;;;;;;;;;;;;5054466;28;19967;-68
2023/10/25 08:12:39;;;;;;;;;;;;;;;;;;5048158;28;19917;-68
2023/10/25 08:15:05;;;;;;;;;;;;;;;;;;5048693;28;19913;-69
2023/10/25 08:17:31;;;;;;;;;;;;;;;;;;5047608;28;19917;-68
2023/10/25 08:19:57;;;;;;;;;;;;;;;;;;5050454;28;19924;-68
2023/10/25 08:22:23;;;;;;;;;;;;;;;;;;5044283;28;20006;-68
2023/10/25 08:24:49;;;;;;;;;;;;;;;;;;5041626;28;20066;-68
2023/10/25 08:27:15;;;;;;;;;;;;;;;;;;5027621;28;19912;-68
2023/10/25 08:29:41;;;;;;;;;;;;;;;;;;5047924;28;19923;-68
2023/10/25 08:32:07;;;;;;;;;;;;;;;;;;5052814;28;19912;-68
2023/10/25 08:34:33;;;;;;;;;;;;;;;;;;5048661;28;20047;-67
2023/10/25 08:36:59;;;;;;;;;;;;;;;;;;5051187;28;19944;-68
2023/10/25 08:39:25;;;;;;;;;;;;;;;;;;5039267;28;20024;-68
2023/10/25 08:41:52;;;;;;;;;;;;;;;;;;5039877;28;19956;-67
2023/10/25 08:44:18;;;;;;;;;;;;;;;;;;5047602;28;19912;-68
2023/10/25 08:46:44;;;;;;;;;;;;;;;;;;5049790;28;20007;-69
2023/10/25 08:49:10;;;;;;;;;;;;;;;;;;5048406;28;20304;-68
2023/10/25 08:51:36;;;;;;;;;;;;;;;;;;5042355;28;20369;-69
2023/10/25 08:54:01;;;;;;;;;;;;;;;;;;5053105;28;20389;-68
2023/10/25 08:56:27;;;;;;;;;;;;;;;;;;5053472;28;19952;-68
2023/10/25 08:58:53;;;;;;;;;;;;;;;;;;5042728;28;20916;-67
2023/10/25 09:01:19;;;;;;;;;;;;;;;;;;5049830;28;20407;-68
2023/10/25 09:03:46;;;;;;;;;;;;;;;;;;5047241;28;19913;-62
2023/10/25 09:06:12;;;;;;;;;;;;;;;;;;5054066;28;20376;-62
2023/10/25 09:08:38;;;;;;;;;;;;;;;;;;5049867;28;19919;-64
2023/10/25 09:11:04;;;;;;;;;;;;;;;;;;5042046;28;19968;-62
2023/10/25 09:13:30;;;;;;;;;;;;;;;;;;5044937;28;19960;-62
2023/10/25 09:15:56;;;;;;;;;;;;;;;;;;5034164;28;20021;-62
2023/10/25 09:18:22;;;;;;;;;;;;;;;;;;5048419;28;19920;-62
2023/10/25 09:20:47;;;;;;;;;;;;;;;;;;5044680;28;19924;-62
2023/10/25 09:23:13;;;;;;;;;;;;;;;;;;5036116;28;19974;-62
2023/10/25 09:25:39;;;;;;;;;;;;;;;;;;5053664;28;19913;-64
2023/10/25 09:28:05;;;;;;;;;;;;;;;;;;5049808;28;19921;-62
2023/10/25 09:30:31;;;;;;;;;;;;;;;;;;5048638;28;20011;-61
2023/10/25 09:32:57;;;;;;;;;;;;;;;;;;5039897;28;19927;-62
2023/10/25 09:35:23;;;;;;;;;;;;;;;;;;5050062;28;20372;-62
2023/10/25 09:37:49;;;;;;;;;;;;;;;;;;5045684;28;19924;-62
2023/10/25 09:40:15;;;;;;;;;;;;;;;;;;5038210;28;19964;-65
2023/10/25 09:42:41;;;;;;;;;;;;;;;;;;5040331;28;19921;-61
2023/10/25 09:45:06;;;;;;;;;;;;;;;;;;5044654;28;19957;-62
2023/10/25 09:47:32;;;;;;;;;;;;;;;;;;5053267;28;20318;-62
2023/10/25 09:49:58;;;;;;;;;;;;;;;;;;5050657;28;19923;-62
2023/10/25 09:52:24;;;;;;;;;;;;;;;;;;5050739;28;19940;-62
2023/10/25 09:54:51;;;;;;;;;;;;;;;;;;5049745;28;19925;-62
2023/10/25 09:57:17;;;;;;;;;;;;;;;;;;5042831;28;20343;-62
2023/10/25 09:59:43;;;;;;;;;;;;;;;;;;5042412;28;19913;-62
2023/10/25 10:02:09;;;;;;;;;;;;;;;;;;5041324;28;19924;-63
2023/10/25 10:04:34;;;;;;;;;;;;;;;;;;5049064;28;19913;-62
2023/10/25 10:07:00;;;;;;;;;;;;;;;;;;5049256;28;20388;-62
2023/10/25 10:09:26;;;;;;;;;;;;;;;;;;5051687;28;20051;-63
2023/10/25 10:11:52;;;;;;;;;;;;;;;;;;5049333;28;19912;-62
2023/10/25 10:14:18;;;;;;;;;;;;;;;;;;5038907;28;19960;-62
2023/10/25 10:16:44;;;;;;;;;;;;;;;;;;5033200;28;20008;-62
2023/10/25 10:19:10;;;;;;;;;;;;;;;;;;5046543;28;19966;-62
2023/10/25 10:21:36;;;;;;;;;;;;;;;;;;5048402;28;20273;-63
2023/10/25 10:24:02;;;;;;;;;;;;;;;;;;5051975;28;19920;-62
2023/10/25 10:26:28;;;;;;;;;;;;;;;;;;5042150;28;19917;-62
2023/10/25 10:28:54;;;;;;;;;;;;;;;;;;5029481;28;19959;-62
2023/10/25 10:31:20;;;;;;;;;;;;;;;;;;5041196;28;19917;-62
2023/10/25 10:33:46;;;;;;;;;;;;;;;;;;5044353;28;20304;-62
2023/10/25 10:36:13;;;;;;;;;;;;;;;;;;5052458;28;19916;-62
2023/10/25 10:38:39;;;;;;;;;;;;;;;;;;5052214;28;19920;-62
2023/10/25 10:41:05;;;;;;;;;;;;;;;;;;5047306;28;19956;-63
2023/10/25 10:43:31;;;;;;;;;;;;;;;;;;5040393;28;19999;-62
2023/10/25 10:45:57;;;;;;;;;;;;;;;;;;5045733;28;19927;-61
2023/10/25 10:48:23;;;;;;;;;;;;;;;;;;5038421;28;20004;-63
2023/10/25 10:50:49;;;;;;;;;;;;;;;;;;5043893;28;19923;-65
2023/10/25 10:53:15;;;;;;;;;;;;;;;;;;5039838;28;19956;-61
2023/10/25 10:55:41;;;;;;;;;;;;;;;;;;5037596;28;19913;-62
2023/10/25 10:58:07;;;;;;;;;;;;;;;;;;5044824;28;19970;-62
2023/10/25 11:00:33;;;;;;;;;;;;;;;;;;5046714;28;20375;-62
2023/10/25 11:02:59;;;;;;;;;;;;;;;;;;5046048;28;19988;-66
2023/10/25 11:05:25;;;;;;;;;;;;;;;;;;5042275;28;19909;-66
2023/10/25 11:07:51;;;;;;;;;;;;;;;;;;5046137;28;19949;-67
2023/10/25 11:10:17;;;;;;;;;;;;;;;;;;5045592;28;19967;-67
2023/10/25 11:12:43;;;;;;;;;;;;;;;;;;5046472;28;19948;-66
2023/10/25 11:15:09;;;;;;;;;;;;;;;;;;5048624;28;20326;-66
2023/10/25 11:17:35;;;;;;;;;;;;;;;;;;5047910;28;19917;-66
2023/10/25 11:20:01;;;;;;;;;;;;;;;;;;5035300;28;19913;-67
2023/10/25 11:22:27;;;;;;;;;;;;;;;;;;5047702;28;20347;-65
2023/10/25 11:24:52;;;;;;;;;;;;;;;;;;5044309;28;19927;-65
2023/10/25 11:27:18;;;;;;;;;;;;;;;;;;5044457;28;20003;-65
2023/10/25 11:29:45;;;;;;;;;;;;;;;;;;5039754;28;20300;-65
2023/10/25 11:32:14;;;;;;;;;;;;;;;;;;5042824;28;20385;-65
2023/10/25 11:34:41;;;;;;;;;;;;;;;;;;5033498;28;20011;-64
2023/10/25 11:37:07;;;;;;;;;;;;;;;;;;5034430;28;19921;-65
2023/10/25 11:39:35;;;;;;;;;;;;;;;;;;5046337;28;19917;-65
2023/10/25 11:42:01;;;;;;;;;;;;;;;;;;5047226;28;19944;-64
2023/10/25 11:44:27;;;;;;;;;;;;;;;;;;5048522;28;20351;-64
2023/10/25 11:46:55;;;;;;;;;;;;;;;;;;5043736;28;19964;-64
2023/10/25 11:49:21;;;;;;;;;;;;;;;;;;5049293;28;19913;-65
2023/10/25 11:51:50;;;;;;;;;;;;;;;;;;5039932;28;19913;-65
2023/10/25 11:54:16;;;;;;;;;;;;;;;;;;5043503;28;20350;-64
2023/10/25 11:56:42;;;;;;;;;;;;;;;;;;5023784;28;19913;-65
2023/10/25 11:59:08;;;;;;;;;;;;;;;;;;5045502;28;20054;-65
2023/10/25 12:01:34;;;;;;;;;;;;;;;;;;5047335;28;19948;-64
2023/10/25 12:03:59;;;;;;;;;;;;;;;;;;5043555;28;19948;-64
2023/10/25 12:06:25;;;;;;;;;;;;;;;;;;5048005;28;19940;-64
2023/10/25 12:08:51;;;;;;;;;;;;;;;;;;5051307;28;19912;-64
2023/10/25 12:11:17;;;;;;;;;;;;;;;;;;5042717;28;20329;-64
2023/10/25 12:13:43;;;;;;;;;;;;;;;;;;5046738;28;19967;-62
2023/10/25 12:16:09;;;;;;;;;;;;;;;;;;5046438;28;20020;-63
2023/10/25 12:18:36;;;;;;;;;;;;;;;;;;5039513;28;19913;-63
2023/10/25 12:21:02;;;;;;;;;;;;;;;;;;5042636;28;19916;-65
2023/10/25 12:23:28;;;;;;;;;;;;;;;;;;5050909;28;20368;-62
2023/10/25 12:25:54;;;;;;;;;;;;;;;;;;5042210;28;19916;-63
2023/10/25 12:28:19;;;;;;;;;;;;;;;;;;5042048;28;19956;-63
2023/10/25 12:30:45;;;;;;;;;;;;;;;;;;5046953;28;19964;-63
2023/10/25 12:33:11;;;;;;;;;;;;;;;;;;5041612;28;19923;-67
2023/10/25 12:35:37;;;;;;;;;;;;;;;;;;5040975;28;19917;-67
2023/10/25 12:38:03;;;;;;;;;;;;;;;;;;5049367;28;19913;-67
2023/10/25 12:40:30;;;;;;;;;;;;;;;;;;5048562;28;20329;-67
2023/10/25 12:42:55;;;;;;;;;;;;;;;;;;5047159;28;20318;-66
2023/10/25 12:45:21;;;;;;;;;;;;;;;;;;5044173;28;19963;-68
2023/10/25 12:47:47;;;;;;;;;;;;;;;;;;5046035;28;19917;-67
2023/10/25 12:50:13;;;;;;;;;;;;;;;;;;5042321;28;19961;-67
2023/10/25 12:52:41;;;;;;;;;;;;;;;;;;5051904;28;20007;-68
2023/10/25 12:55:07;;;;;;;;;;;;;;;;;;5051527;28;19966;-67
2023/10/25 12:57:33;;;;;;;;;;;;;;;;;;5049617;28;20504;-67
2023/10/25 12:59:59;;;;;;;;;;;;;;;;;;5048619;28;19927;-67
2023/10/25 13:02:25;;;;;;;;;;;;;;;;;;5051655;28;19960;-67
2023/10/25 13:04:51;;;;;;;;;;;;;;;;;;5050957;28;20062;-67
2023/10/25 13:07:17;;;;;;;;;;;;;;;;;;5044219;28;20365;-68
2023/10/25 13:09:43;;;;;;;;;;;;;;;;;;5049526;28;19916;-67
2023/10/25 13:12:09;;;;;;;;;;;;;;;;;;5049601;28;19962;-67
2023/10/25 13:14:35;;;;;;;;;;;;;;;;;;5020695;28;20357;-67
2023/10/25 13:17:01;;;;;;;;;;;;;;;;;;5043541;28;20258;-67
2023/10/25 13:19:29;;;;;;;;;;;;;;;;;;5051352;28;19928;-66
2023/10/25 13:21:55;;;;;;;;;;;;;;;;;;5050641;28;20016;-61
2023/10/25 13:24:21;;;;;;;;;;;;;;;;;;5050306;28;20011;-61
2023/10/25 13:26:47;;;;;;;;;;;;;;;;;;5034374;28;19916;-62
2023/10/25 13:29:13;;;;;;;;;;;;;;;;;;5048033;28;19919;-62
2023/10/25 13:31:38;;;;;;;;;;;;;;;;;;5047398;28;19956;-61
2023/10/25 13:34:04;;;;;;;;;;;;;;;;;;5053564;28;20432;-61
2023/10/25 13:36:30;;;;;;;;;;;;;;;;;;5053569;28;19923;-61
2023/10/25 13:38:56;;;;;;;;;;;;;;;;;;5049684;28;19912;-62
2023/10/25 13:41:22;;;;;;;;;;;;;;;;;;5049883;28;19998;-61
2023/10/25 13:43:48;;;;;;;;;;;;;;;;;;5052033;28;20000;-67
2023/10/25 13:46:14;;;;;;;;;;;;;;;;;;5049455;28;19948;-68
2023/10/25 13:48:41;;;;;;;;;;;;;;;;;;5052019;28;19943;-67
2023/10/25 13:51:07;;;;;;;;;;;;;;;;;;5037499;28;20451;-67
2023/10/25 13:53:33;;;;;;;;;;;;;;;;;;5050401;28;19957;-65
2023/10/25 13:55:59;;;;;;;;;;;;;;;;;;5047759;28;19916;-67
2023/10/25 13:58:25;;;;;;;;;;;;;;;;;;5049035;28;19947;-67
2023/10/25 14:00:51;;;;;;;;;;;;;;;;;;5046800;28;20324;-67
2023/10/25 14:03:17;;;;;;;;;;;;;;;;;;5046291;28;19913;-67
2023/10/25 14:05:43;;;;;;;;;;;;;;;;;;5050610;28;19921;-67
2023/10/25 14:08:09;;;;;;;;;;;;;;;;;;5050615;28;20372;-68
2023/10/25 14:10:35;;;;;;;;;;;;;;;;;;5048218;28;19952;-67
2023/10/25 14:13:02;;;;;;;;;;;;;;;;;;5043953;28;20281;-67
2023/10/25 14:15:28;;;;;;;;;;;;;;;;;;5041487;28;19944;-68
2023/10/25 14:17:54;;;;;;;;;;;;;;;;;;5048821;28;19956;-68
2023/10/25 14:20:20;;;;;;;;;;;;;;;;;;5049632;28;20015;-67
2023/10/25 14:22:47;;;;;;;;;;;;;;;;;;5042894;28;20022;-67
2023/10/25 14:25:13;;;;;;;;;;;;;;;;;;5052226;28;19968;-70
2023/10/25 14:27:39;;;;;;;;;;;;;;;;;;5050255;28;19923;-70
2023/10/25 14:30:05;;;;;;;;;;;;;;;;;;5051561;28;20355;-70
2023/10/25 14:32:30;;;;;;;;;;;;;;;;;;5043997;28;19923;-65
2023/10/25 14:34:56;;;;;;;;;;;;;;;;;;5045074;28;19951;-65
2023/10/25 14:37:22;;;;;;;;;;;;;;;;;;5051377;28;19999;-65
2023/10/25 14:39:48;;;;;;;;;;;;;;;;;;5043450;28;20065;-65
2023/10/25 14:42:14;;;;;;;;;;;;;;;;;;5050126;28;20015;-65
2023/10/25 14:44:40;;;;;;;;;;;;;;;;;;5035987;28;19927;-65
2023/10/25 14:47:07;;;;;;;;;;;;;;;;;;5046712;28;20369;-65
2023/10/25 14:49:33;;;;;;;;;;;;;;;;;;5051165;28;20344;-65
2023/10/25 14:51:59;;;;;;;;;;;;;;;;;;5051531;28;19917;-62
2023/10/25 14:54:26;;;;;;;;;;;;;;;;;;5051406;28;19919;-63
2023/10/25 14:56:52;;;;;;;;;;;;;;;;;;5046969;28;20010;-62
2023/10/25 14:59:18;;;;;;;;;;;;;;;;;;5043962;28;20281;-63
2023/10/25 15:01:44;;;;;;;;;;;;;;;;;;5051671;28;19913;-63
2023/10/25 15:04:10;;;;;;;;;;;;;;;;;;5048592;28;19956;-63
2023/10/25 15:06:36;;;;;;;;;;;;;;;;;;5032510;28;20035;-62
2023/10/25 15:09:02;;;;;;;;;;;;;;;;;;5047236;28;20007;-63
2023/10/25 15:11:28;;;;;;;;;;;;;;;;;;5049436;28;19982;-62
2023/10/25 15:13:54;;;;;;;;;;;;;;;;;;5049331;28;20396;-63
2023/10/25 15:16:21;;;;;;;;;;;;;;;;;;5046952;28;20371;-63
2023/10/25 15:18:47;;;;;;;;;;;;;;;;;;5051829;28;19910;-63
2023/10/25 15:21:13;;;;;;;;;;;;;;;;;;5050962;28;19935;-63
2023/10/25 15:23:39;;;;;;;;;;;;;;;;;;5048723;28;19923;-62
2023/10/25 15:26:05;;;;;;;;;;;;;;;;;;5051229;28;20003;-62
2023/10/25 15:28:31;;;;;;;;;;;;;;;;;;5044752;28;20000;-63
2023/10/25 15:30:57;;;;;;;;;;;;;;;;;;5045287;28;20335;-63
2023/10/25 15:33:24;;;;;;;;;;;;;;;;;;5029848;28;20042;-63
2023/10/25 15:35:50;;;;;;;;;;;;;;;;;;5050553;28;19924;-62
2023/10/25 15:38:16;;;;;;;;;;;;;;;;;;5047305;28;19913;-63
2023/10/25 15:40:41;;;;;;;;;;;;;;;;;;5048762;28;20344;-62
2023/10/25 15:43:07;;;;;;;;;;;;;;;;;;5044335;28;19917;-62
2023/10/25 15:45:33;;;;;;;;;;;;;;;;;;5049663;28;19913;-62
2023/10/25 15:47:59;;;;;;;;;;;;;;;;;;5045553;28;19920;-63
2023/10/25 15:50:25;;;;;;;;;;;;;;;;;;5044055;28;19921;-63
2023/10/25 15:52:51;;;;;;;;;;;;;;;;;;5047290;28;20344;-62
2023/10/25 15:55:17;;;;;;;;;;;;;;;;;;5052030;28;19999;-62
2023/10/25 15:57:43;;;;;;;;;;;;;;;;;;5045773;28;19923;-63
2023/10/25 16:00:09;;;;;;;;;;;;;;;;;;5044187;28;20327;-63
2023/10/25 16:02:35;;;;;;;;;;;;;;;;;;5047805;28;19920;-69
2023/10/25 16:05:00;;;;;;;;;;;;;;;;;;5044207;28;19986;-69
2023/10/25 16:07:26;;;;;;;;;;;;;;;;;;5047764;28;20042;-69
2023/10/25 16:09:52;;;;;;;;;;;;;;;;;;5049455;28;20361;-69
2023/10/25 16:12:18;;;;;;;;;;;;;;;;;;5049751;28;19920;-69
2023/10/25 16:14:44;;;;;;;;;;;;;;;;;;5044540;28;19947;-69
2023/10/25 16:17:10;;;;;;;;;;;;;;;;;;5048891;28;19921;-68
2023/10/25 16:19:36;;;;;;;;;;;;;;;;;;5040014;28;19931;-70
2023/10/25 16:22:02;;;;;;;;;;;;;;;;;;5053568;28;20003;-69
2023/10/25 16:24:28;;;;;;;;;;;;;;;;;;5050741;28;19931;-68
2023/10/25 16:26:54;;;;;;;;;;;;;;;;;;5046382;28;19916;-69
2023/10/25 16:29:20;;;;;;;;;;;;;;;;;;5039657;28;19968;-67
2023/10/25 16:31:46;;;;;;;;;;;;;;;;;;5043362;28;20364;-69
2023/10/25 16:34:15;;;;;;;;;;;;;;;;;;5052659;28;19916;-69
2023/10/25 16:36:42;;;;;;;;;;;;;;;;;;5046298;28;19921;-69